HKLU 020600Z 16007KT 9999 FEW023 28/21 Q1016
From batch tds/metars/production/2022/10/2/h06_m59_metars.cache.csv.gz
Observed at (about 2 hours ago)
Identifier HKLU
HKLU 020500Z 16006KT 9999 SCT021 27/21 Q1016
From batch tds/metars/production/2022/10/2/h05_m49_metars.cache.csv.gz
Observed at (about 3 hours ago)
Identifier HKLU
HKLU 011400Z 16006KT 9999 SCT025 27/20 Q1014
From batch tds/metars/production/2022/10/1/h14_m58_metars.cache.csv.gz
Observed at (about 18 hours ago)
Identifier HKLU
HKLU 011300Z 16006KT 9999 BKN026 28/20 Q1014
From batch tds/metars/production/2022/10/1/h13_m52_metars.cache.csv.gz
Observed at (about 19 hours ago)
Identifier HKLU
HKLU 011200Z 18006KT 9999 BKN027 30/20 Q1014
From batch tds/metars/production/2022/10/1/h12_m54_metars.cache.csv.gz
Observed at (about 20 hours ago)
Identifier HKLU
HKLU 010900Z 16007KT 9999 BKN026 30/20 Q1016
From batch tds/metars/production/2022/10/1/h09_m50_metars.cache.csv.gz
Observed at (about 23 hours ago)
Identifier HKLU
HKLU 010800Z 16006KT 9999 BKN025 29/21 Q1017
From batch tds/metars/production/2022/10/1/h08_m53_metars.cache.csv.gz
Observed at (about 24 hours ago)
Identifier HKLU
HKLU 010700Z 16006KT 9999 SCT024 28/22 Q1017
From batch tds/metars/production/2022/10/1/h07_m59_metars.cache.csv.gz
Observed at (1 day ago)
Identifier HKLU
HKLU 010500Z 18005KT 9999 BKN021 27/21 Q1016
From batch tds/metars/production/2022/10/1/h05_m53_metars.cache.csv.gz
Observed at (1 day ago)
Identifier HKLU
HKLU 301400Z 16007KT 9999 SCT025 28/20 Q1013
From batch tds/metars/production/2022/9/30/h14_m56_metars.cache.csv.gz
Observed at (1 day ago)
Identifier HKLU
HKLU 301200Z 18006KT 9999 SCT026 29/20 Q1013
From batch tds/metars/production/2022/9/30/h12_m59_metars.cache.csv.gz
Observed at (2 days ago)
Identifier HKLU
HKLU 301000Z 18007KT 9999 BKN026 29/19 Q1014
From batch tds/metars/production/2022/9/30/h10_m58_metars.cache.csv.gz
Observed at (2 days ago)
Identifier HKLU
HKLU 300900Z 18006KT 9999 SCT026 30/19 Q1015
From batch tds/metars/production/2022/9/30/h09_m55_metars.cache.csv.gz
Observed at (2 days ago)
Identifier HKLU
HKLU 300800Z 18005KT 9999 BKN024 30/20 Q1016
From batch tds/metars/production/2022/9/30/h08_m59_metars.cache.csv.gz
Observed at (2 days ago)
Identifier HKLU
HKLU 300700Z 16006KT 9999 BKN024 28/21 Q1016
From batch tds/metars/production/2022/9/30/h07_m49_metars.cache.csv.gz
Observed at (2 days ago)
Identifier HKLU
HKLU 300600Z 16006KT 9999 BKN023 28/20 Q1016
From batch tds/metars/production/2022/9/30/h06_m59_metars.cache.csv.gz
Observed at (2 days ago)
Identifier HKLU
HKLU 300500Z 18006KT 9999 BKN022 26/21 Q1015
From batch tds/metars/production/2022/9/30/h05_m55_metars.cache.csv.gz
Observed at (2 days ago)
Identifier HKLU
HKLU 291400Z 16007KT 9999 BKN025 28/21 Q1013
From batch tds/metars/production/2022/9/29/h14_m53_metars.cache.csv.gz
Observed at (3 days ago)
Identifier HKLU
HKLU 291100Z 16012KT 9999 BKN027 30/21 Q1013
From batch tds/metars/production/2022/9/29/h11_m59_metars.cache.csv.gz
Observed at (3 days ago)
Identifier HKLU
HKLU 291000Z 1008KT 9999 SCT027 31/20 Q1014
From batch tds/metars/production/2022/9/29/h10_m52_metars.cache.csv.gz
Observed at (3 days ago)
Identifier HKLU
HKLU 290800Z 18006KT 9999 BKN025 29/21 Q1015
From batch tds/metars/production/2022/9/29/h08_m59_metars.cache.csv.gz
Observed at (3 days ago)
Identifier HKLU
HKLU 290700Z 18006KT 9999 BKN024 30/21 Q1015
From batch tds/metars/production/2022/9/29/h07_m57_metars.cache.csv.gz
Observed at (3 days ago)
Identifier HKLU
HKLU 290500Z 18006KT 9999 BKN021 28/21 Q1015
From batch tds/metars/production/2022/9/29/h05_m51_metars.cache.csv.gz
Observed at (3 days ago)
Identifier HKLU
HKLU 281500Z 18006KT 9999 SCT024 26/20 Q1013
From batch tds/metars/production/2022/9/28/h15_m52_metars.cache.csv.gz
Observed at (4 days ago)
Identifier HKLU
HKLU 281400Z 18006KT 9999 SCT025 28/20 Q1013
From batch tds/metars/production/2022/9/28/h14_m54_metars.cache.csv.gz
Observed at (4 days ago)
Identifier HKLU
HKLU 281300Z 20007KT 9999 SCT025 29/20 Q1012
From batch tds/metars/production/2022/9/28/h13_m51_metars.cache.csv.gz
Observed at (4 days ago)
Identifier HKLU
HKLU 281200Z 20008KT 9999 BKN025 29/20 Q1013
From batch tds/metars/production/2022/9/28/h12_m59_metars.cache.csv.gz
Observed at (4 days ago)
Identifier HKLU
HKLU 281100Z 18008KT 9999 BKN026 29/20 Q1013
From batch tds/metars/production/2022/9/28/h11_m52_metars.cache.csv.gz
Observed at (4 days ago)
Identifier HKLU
HKLU 281000Z 16012KT 9999 BKN026 30/20 Q1014
From batch tds/metars/production/2022/9/28/h10_m55_metars.cache.csv.gz
Observed at (4 days ago)
Identifier HKLU
HKLU 280900Z 18010KT 9999 SCT026 31/20 Q1015
From batch tds/metars/production/2022/9/28/h09_m52_metars.cache.csv.gz
Observed at (4 days ago)
Identifier HKLU
HKLU 280800Z 20006KT 9999 SCT026 30/19 Q1016
From batch tds/metars/production/2022/9/28/h08_m53_metars.cache.csv.gz
Observed at (4 days ago)
Identifier HKLU
HKLU 280700Z 18007KT 9999 BKN024 28/20 Q1017
From batch tds/metars/production/2022/9/28/h07_m58_metars.cache.csv.gz
Observed at (4 days ago)
Identifier HKLU
HKLU 280600Z 18007KT 9999 BKN023 27/20 Q1017
From batch tds/metars/production/2022/9/28/h06_m59_metars.cache.csv.gz
Observed at (4 days ago)
Identifier HKLU
HKLU 280500Z 18006KT 9999 SCT021 27/20 Q1016
From batch tds/metars/production/2022/9/28/h05_m56_metars.cache.csv.gz
Observed at (4 days ago)
Identifier HKLU
HKLU 271400Z 16006KT 9999 SCT025 28/20 Q1013
From batch tds/metars/production/2022/9/27/h14_m50_metars.cache.csv.gz
Observed at (5 days ago)
Identifier HKLU
HKLU 270900Z 18006KT 9999 SCT026 30/20 Q1015
From batch tds/metars/production/2022/9/27/h09_m59_metars.cache.csv.gz
Observed at (5 days ago)
Identifier HKLU
HKLU 270500Z 18006KT 9999 BKN021 27/21 Q1016
From batch tds/metars/production/2022/9/27/h05_m59_metars.cache.csv.gz
Observed at (5 days ago)
Identifier HKLU
HKLU 261500Z 18006KT 9999 SCT024 27/22 Q1014
From batch tds/metars/production/2022/9/26/h15_m51_metars.cache.csv.gz
Observed at (6 days ago)
Identifier HKLU
HKLU 261400Z 18007KT 9999 BKN025 28/22 Q1013
From batch tds/metars/production/2022/9/26/h14_m59_metars.cache.csv.gz
Observed at (6 days ago)
Identifier HKLU
HKLU 261300Z 18007KT 9999 BKN025 29/22 Q1013
From batch tds/metars/production/2022/9/26/h13_m59_metars.cache.csv.gz
Observed at (6 days ago)
Identifier HKLU
HKLU 261200Z 18006KT 9999 SCT026 30/21 Q1013
From batch tds/metars/production/2022/9/26/h12_m59_metars.cache.csv.gz
Observed at (6 days ago)
Identifier HKLU
HKLU 261100Z 18006KT 9999 SCT026 31/22 Q1013
From batch tds/metars/production/2022/9/26/h11_m59_metars.cache.csv.gz
Observed at (6 days ago)
Identifier HKLU
HKLU 261000Z 16006KT 9999 BKN026 30/22 Q1014
From batch tds/metars/production/2022/9/26/h10_m58_metars.cache.csv.gz
Observed at (6 days ago)
Identifier HKLU
HKLU 260900Z 18007KT 9999 BKN026 30/22 Q1015
From batch tds/metars/production/2022/9/26/h09_m59_metars.cache.csv.gz
Observed at (6 days ago)
Identifier HKLU
HKLU 260800Z 16006KT 9999 BKN025 29/22 Q1016
From batch tds/metars/production/2022/9/26/h08_m54_metars.cache.csv.gz
Observed at (6 days ago)
Identifier HKLU
HKLU 260700Z 18006KT 9999 BKN023 28/22 Q1016
From batch tds/metars/production/2022/9/26/h07_m57_metars.cache.csv.gz
Observed at (6 days ago)
Identifier HKLU
HKLU 260500Z 18006KT 9999 SCT021 27/22 Q1016
From batch tds/metars/production/2022/9/26/h05_m59_metars.cache.csv.gz
Observed at (6 days ago)
Identifier HKLU
HKLU 251500Z 18005KT 9999 SCT024 27/22 Q1013
From batch tds/metars/production/2022/9/25/h15_m50_metars.cache.csv.gz
Observed at (7 days ago)
Identifier HKLU
HKLU 251300Z 18007KT 9999 SCT026 30/22 Q1011
From batch tds/metars/production/2022/9/25/h13_m50_metars.cache.csv.gz
Observed at (7 days ago)
Identifier HKLU
HKLU 251100Z 18006KT 9999 SCT027 31/21 Q1012
From batch tds/metars/production/2022/9/25/h11_m58_metars.cache.csv.gz
Observed at (7 days ago)
Identifier HKLU
talk